Time;durP1;ratioP1;P1;durP2;ratioP2;P2;SDS_P1;SDS_P2;PMS_P1;PMS_P2;Temp;Humidity;BMP_temperature;BMP_pressure;BME280_temperature;BME280_humidity;BME280_pressure;Samples;Min_cycle;Max_cycle;Signal;HPM_P1;HPM_P2
2022/11/24 00:00:38;;;;;;;23.13;5.20;;;;;;;;;;5022591;28;20136;-76
2022/11/24 00:03:05;;;;;;;29.77;5.72;;;;;;;;;;5027278;28;20064;-76
2022/11/24 00:05:32;;;;;;;25.70;5.72;;;;;;;;;;5028475;28;20060;-76
2022/11/24 00:08:01;;;;;;;25.63;5.18;;;;;;;;;;5030179;28;20522;-76
2022/11/24 00:10:28;;;;;;;35.60;6.13;;;;;;;;;;5028295;28;20061;-76
2022/11/24 00:12:55;;;;;;;38.30;6.93;;;;;;;;;;5026848;28;20078;-76
2022/11/24 00:15:23;;;;;;;27.33;6.60;;;;;;;;;;5025838;28;20079;-76
2022/11/24 00:17:50;;;;;;;31.00;6.18;;;;;;;;;;5042848;28;20049;-76
2022/11/24 00:20:17;;;;;;;34.40;5.65;;;;;;;;;;5027837;28;20071;-76
2022/11/24 00:22:44;;;;;;;29.48;5.43;;;;;;;;;;5026686;28;20083;-76
2022/11/24 00:25:13;;;;;;;27.65;6.20;;;;;;;;;;5024543;28;20053;-76
2022/11/24 00:27:40;;;;;;;29.75;7.07;;;;;;;;;;5039667;28;20775;-76
2022/11/24 00:30:08;;;;;;;31.95;5.82;;;;;;;;;;5032329;28;20072;-76
2022/11/24 00:32:36;;;;;;;35.58;6.07;;;;;;;;;;5021659;28;20057;-76
2022/11/24 00:35:03;;;;;;;30.45;5.70;;;;;;;;;;5033051;28;20041;-76
2022/11/24 00:37:30;;;;;;;30.42;6.07;;;;;;;;;;5029177;28;20057;-77
2022/11/24 00:39:57;;;;;;;26.63;5.72;;;;;;;;;;5034419;28;20163;-76
2022/11/24 00:42:26;;;;;;;37.95;5.55;;;;;;;;;;5034876;28;20423;-76
2022/11/24 00:44:53;;;;;;;34.35;6.22;;;;;;;;;;5035530;28;20044;-77
2022/11/24 00:47:20;;;;;;;39.88;6.97;;;;;;;;;;5042758;28;20449;-77
2022/11/24 00:49:48;;;;;;;39.55;6.18;;;;;;;;;;5037562;28;20063;-76
2022/11/24 00:52:15;;;;;;;49.30;6.82;;;;;;;;;;5038555;28;20048;-76
2022/11/24 00:54:42;;;;;;;46.58;6.85;;;;;;;;;;5034565;28;20080;-76
2022/11/24 00:57:09;;;;;;;57.30;7.53;;;;;;;;;;5035537;28;20045;-76
2022/11/24 00:59:38;;;;;;;31.75;5.45;;;;;;;;;;5035203;28;20052;-76
2022/11/24 01:02:06;;;;;;;41.38;7.10;;;;;;;;;;5028751;28;20103;-76
2022/11/24 01:04:33;;;;;;;44.00;6.07;;;;;;;;;;5029640;28;20052;-76
2022/11/24 01:07:01;;;;;;;37.47;5.80;;;;;;;;;;5026236;28;20053;-76
2022/11/24 01:09:28;;;;;;;35.10;5.57;;;;;;;;;;5030349;28;20649;-76
2022/11/24 01:12:01;;;;;;;31.85;5.60;;;;;;;;;;5030427;28;20053;-76
2022/11/24 01:14:29;;;;;;;38.90;5.97;;;;;;;;;;5029381;28;20549;-75
2022/11/24 01:16:57;;;;;;;36.10;5.68;;;;;;;;;;5030186;28;20131;-76
2022/11/24 01:19:25;;;;;;;34.55;5.65;;;;;;;;;;5032350;28;20049;-75
2022/11/24 01:21:52;;;;;;;37.25;5.00;;;;;;;;;;5033350;28;20052;-76
2022/11/24 01:24:20;;;;;;;28.52;4.70;;;;;;;;;;5041851;28;20061;-76
2022/11/24 01:26:47;;;;;;;39.17;5.20;;;;;;;;;;5035895;28;20361;-76
2022/11/24 01:29:14;;;;;;;36.50;5.15;;;;;;;;;;5037149;28;20045;-76
2022/11/24 01:31:41;;;;;;;31.00;4.38;;;;;;;;;;5036000;28;20196;-76
2022/11/24 01:34:11;;;;;;;36.42;4.22;;;;;;;;;;5031966;28;20420;-75
2022/11/24 01:36:39;;;;;;;29.52;5.07;;;;;;;;;;5050767;28;20195;-75
2022/11/24 01:39:06;;;;;;;33.17;5.43;;;;;;;;;;5036205;28;20414;-75
2022/11/24 01:41:34;;;;;;;31.95;4.38;;;;;;;;;;5036443;28;20095;-75
2022/11/24 01:44:01;;;;;;;45.28;5.50;;;;;;;;;;5040725;28;20524;-75
2022/11/24 01:46:30;;;;;;;41.08;4.95;;;;;;;;;;5037737;28;20044;-75
2022/11/24 01:49:01;;;;;;;33.90;5.10;;;;;;;;;;5036353;28;20625;-75
2022/11/24 01:51:31;;;;;;;29.67;4.40;;;;;;;;;;5039278;28;20053;-75
2022/11/24 01:54:01;;;;;;;35.80;5.90;;;;;;;;;;5032856;28;20049;-75
2022/11/24 01:56:29;;;;;;;27.60;4.28;;;;;;;;;;5036547;28;20056;-75
2022/11/24 01:58:58;;;;;;;33.45;5.82;;;;;;;;;;5032367;28;20045;-74
2022/11/24 02:01:26;;;;;;;36.20;3.72;;;;;;;;;;5024240;28;20048;-75
2022/11/24 02:03:54;;;;;;;32.30;3.80;;;;;;;;;;5027701;28;20543;-76
2022/11/24 02:06:23;;;;;;;22.63;4.07;;;;;;;;;;5031014;28;20052;-75
2022/11/24 02:08:53;;;;;;;21.98;3.55;;;;;;;;;;5026244;28;20060;-75
2022/11/24 02:11:21;;;;;;;28.17;3.67;;;;;;;;;;5043159;28;20475;-75
2022/11/24 02:13:50;;;;;;;21.20;3.20;;;;;;;;;;5034168;28;20128;-75
2022/11/24 02:16:17;;;;;;;27.95;3.80;;;;;;;;;;5027274;28;20460;-75
2022/11/24 02:18:45;;;;;;;27.45;3.53;;;;;;;;;;5034128;28;20055;-75
2022/11/24 02:21:13;;;;;;;29.42;3.58;;;;;;;;;;5038300;28;20154;-76
2022/11/24 02:23:45;;;;;;;25.55;3.65;;;;;;;;;;5029958;28;20293;-75
2022/11/24 02:26:20;;;;;;;26.45;3.83;;;;;;;;;;5033064;28;20531;-76
2022/11/24 02:28:49;;;;;;;27.27;3.90;;;;;;;;;;5035486;28;20048;-75
2022/11/24 02:31:16;;;;;;;29.92;4.63;;;;;;;;;;5031074;28;20064;-75
2022/11/24 02:33:43;;;;;;;26.95;3.28;;;;;;;;;;5035756;28;20056;-75
2022/11/24 02:36:10;;;;;;;26.75;3.58;;;;;;;;;;5032067;28;20647;-76
2022/11/24 02:38:38;;;;;;;27.08;3.55;;;;;;;;;;5030049;28;20052;-75
2022/11/24 02:41:07;;;;;;;25.60;3.45;;;;;;;;;;5032219;28;20053;-76
2022/11/24 02:43:36;;;;;;;24.30;3.40;;;;;;;;;;5027921;28;20057;-75
2022/11/24 02:46:05;;;;;;;21.80;3.20;;;;;;;;;;5028640;28;20048;-75
2022/11/24 02:48:32;;;;;;;26.45;3.40;;;;;;;;;;5023919;28;20468;-75
2022/11/24 02:51:00;;;;;;;28.45;3.72;;;;;;;;;;5022369;28;20049;-76
2022/11/24 02:53:27;;;;;;;21.27;3.00;;;;;;;;;;5025032;28;20404;-75
2022/11/24 02:55:54;;;;;;;20.10;2.83;;;;;;;;;;5020585;28;20041;-76
2022/11/24 02:58:21;;;;;;;25.25;3.72;;;;;;;;;;5029456;28;20084;-76
2022/11/24 03:00:49;;;;;;;27.40;3.85;;;;;;;;;;5031258;28;20044;-76
2022/11/24 03:03:17;;;;;;;30.15;3.55;;;;;;;;;;5031950;28;20059;-76
2022/11/24 03:05:45;;;;;;;25.27;3.67;;;;;;;;;;5029507;28;20133;-75
2022/11/24 03:08:12;;;;;;;32.53;3.40;;;;;;;;;;5027406;28;20486;-76
2022/11/24 03:10:40;;;;;;;24.35;3.08;;;;;;;;;;5033401;28;20565;-75
2022/11/24 03:13:07;;;;;;;27.80;3.20;;;;;;;;;;5026551;28;20064;-76
2022/11/24 03:15:34;;;;;;;21.20;3.38;;;;;;;;;;5033041;28;20052;-76
2022/11/24 03:18:02;;;;;;;33.50;3.67;;;;;;;;;;5033385;28;21086;-75
2022/11/24 03:20:31;;;;;;;24.65;3.65;;;;;;;;;;5031910;28;20049;-76
2022/11/24 03:22:58;;;;;;;21.75;3.65;;;;;;;;;;5034230;28;20040;-76
2022/11/24 03:25:25;;;;;;;32.22;3.72;;;;;;;;;;5030613;28;20544;-76
2022/11/24 03:27:53;;;;;;;33.22;4.78;;;;;;;;;;5037603;28;20602;-76
2022/11/24 03:30:20;;;;;;;23.40;3.05;;;;;;;;;;5037764;28;20048;-75
2022/11/24 03:32:47;;;;;;;25.00;3.35;;;;;;;;;;5037146;28;20056;-75
2022/11/24 03:35:14;;;;;;;28.45;3.47;;;;;;;;;;5024226;28;20049;-76
2022/11/24 03:37:43;;;;;;;20.73;3.65;;;;;;;;;;5023311;28;20052;-76
2022/11/24 03:40:10;;;;;;;24.48;3.00;;;;;;;;;;5038794;28;20044;-75
2022/11/24 03:42:38;;;;;;;18.65;3.47;;;;;;;;;;5033924;28;20064;-76
2022/11/24 03:45:05;;;;;;;25.75;3.38;;;;;;;;;;5037837;28;20044;-76
2022/11/24 03:47:32;;;;;;;26.20;3.60;;;;;;;;;;5033079;28;20057;-76
2022/11/24 03:50:00;;;;;;;21.50;3.28;;;;;;;;;;5030104;28;20056;-75
2022/11/24 03:52:27;;;;;;;27.58;3.92;;;;;;;;;;5035201;28;20606;-75
2022/11/24 03:54:55;;;;;;;31.38;4.18;;;;;;;;;;5044893;28;20045;-76
2022/11/24 03:57:23;;;;;;;33.35;3.75;;;;;;;;;;5030964;28;20055;-76
2022/11/24 03:59:50;;;;;;;25.30;3.30;;;;;;;;;;5030969;28;20056;-77
2022/11/24 04:02:17;;;;;;;22.08;3.60;;;;;;;;;;5029400;28;20048;-77
2022/11/24 04:04:49;;;;;;;29.35;4.05;;;;;;;;;;5034114;28;20049;-78
2022/11/24 04:07:17;;;;;;;33.00;3.88;;;;;;;;;;5033348;28;20408;-77
2022/11/24 04:09:44;;;;;;;33.80;3.75;;;;;;;;;;5036950;28;20081;-77
2022/11/24 04:14:57;;;;;;;28.05;3.95;;;;;;;;;;5029435;28;20045;-76
2022/11/24 04:17:25;;;;;;;20.13;3.45;;;;;;;;;;5031089;28;20052;-76
2022/11/24 04:19:52;;;;;;;27.85;4.15;;;;;;;;;;5027449;28;20063;-76
2022/11/24 04:22:19;;;;;;;24.35;3.95;;;;;;;;;;5031394;28;20048;-77
2022/11/24 04:24:46;;;;;;;21.35;3.70;;;;;;;;;;5030357;28;20089;-77
2022/11/24 04:27:15;;;;;;;26.02;3.10;;;;;;;;;;5031457;28;20041;-77
2022/11/24 04:29:42;;;;;;;38.60;4.22;;;;;;;;;;5028753;28;20068;-76
2022/11/24 04:32:09;;;;;;;31.45;3.63;;;;;;;;;;5031159;28;20056;-76
2022/11/24 04:34:37;;;;;;;42.45;4.85;;;;;;;;;;5031145;28;20276;-77
2022/11/24 04:37:04;;;;;;;25.35;3.90;;;;;;;;;;5028915;28;20045;-76
2022/11/24 04:39:31;;;;;;;17.33;3.33;;;;;;;;;;5030353;28;20053;-76
2022/11/24 04:41:58;;;;;;;20.55;3.63;;;;;;;;;;5030807;28;20068;-76
2022/11/24 04:44:27;;;;;;;24.98;3.22;;;;;;;;;;5030745;28;20053;-76
2022/11/24 04:46:54;;;;;;;24.83;3.58;;;;;;;;;;5027038;28;20874;-76
2022/11/24 04:49:21;;;;;;;26.92;3.90;;;;;;;;;;5026101;28;20048;-76
2022/11/24 04:51:48;;;;;;;22.95;3.72;;;;;;;;;;5026916;28;20427;-76
2022/11/24 04:54:16;;;;;;;19.40;3.95;;;;;;;;;;5034764;28;20053;-76
2022/11/24 04:56:43;;;;;;;25.27;3.45;;;;;;;;;;5029104;28;20144;-77
2022/11/24 04:59:13;;;;;;;23.77;3.15;;;;;;;;;;5023050;28;20052;-77
2022/11/24 05:01:42;;;;;;;23.33;3.72;;;;;;;;;;5031193;28;20044;-76
2022/11/24 05:04:09;;;;;;;20.58;3.38;;;;;;;;;;5033249;28;20140;-76
2022/11/24 05:06:37;;;;;;;27.45;3.65;;;;;;;;;;5032936;28;20148;-76
2022/11/24 05:09:04;;;;;;;26.00;3.72;;;;;;;;;;5044028;28;20048;-76
2022/11/24 05:11:31;;;;;;;23.05;3.63;;;;;;;;;;5029844;28;20056;-76
2022/11/24 05:13:58;;;;;;;20.63;2.75;;;;;;;;;;5018089;28;20056;-76
2022/11/24 05:16:26;;;;;;;25.17;3.05;;;;;;;;;;5027380;28;20057;-77
2022/11/24 05:18:54;;;;;;;24.30;4.13;;;;;;;;;;5027837;28;20052;-76
2022/11/24 05:21:22;;;;;;;25.05;3.13;;;;;;;;;;5029515;28;20061;-76
2022/11/24 05:23:49;;;;;;;23.65;2.80;;;;;;;;;;5037672;28;20084;-73
2022/11/24 05:26:17;;;;;;;25.02;3.05;;;;;;;;;;5032262;28;20045;-74
2022/11/24 05:28:44;;;;;;;27.77;3.80;;;;;;;;;;5029715;28;20057;-73
2022/11/24 05:31:11;;;;;;;19.52;2.80;;;;;;;;;;5027636;28;20079;-73
2022/11/24 05:33:38;;;;;;;19.73;3.17;;;;;;;;;;5031849;28;20056;-74
2022/11/24 05:36:51;;;;;;;21.70;3.03;;;;;;;;;;5032892;28;20053;-73
2022/11/24 05:38:55;;;;;;;21.48;3.45;;;;;;;;;;5032219;28;20068;-74
2022/11/24 05:41:22;;;;;;;18.63;2.35;;;;;;;;;;5033550;28;20056;-73
2022/11/24 05:43:49;;;;;;;26.63;2.80;;;;;;;;;;5030993;28;20496;-73
2022/11/24 05:46:16;;;;;;;21.00;3.58;;;;;;;;;;5032677;28;20065;-73
2022/11/24 05:48:44;;;;;;;17.52;2.97;;;;;;;;;;5030913;28;20172;-73
2022/11/24 05:51:12;;;;;;;20.30;3.10;;;;;;;;;;5033023;28;20045;-73
2022/11/24 05:53:40;;;;;;;17.20;2.20;;;;;;;;;;5029543;28;20052;-73
2022/11/24 05:56:07;;;;;;;22.05;4.00;;;;;;;;;;5031137;28;20049;-73
2022/11/24 05:58:34;;;;;;;22.13;3.95;;;;;;;;;;5020419;28;20072;-74
2022/11/24 06:01:05;;;;;;;22.67;2.88;;;;;;;;;;5037627;28;20489;-72
2022/11/24 06:03:32;;;;;;;17.60;2.53;;;;;;;;;;5030553;28;20061;-73
2022/11/24 06:06:00;;;;;;;20.38;3.03;;;;;;;;;;5027670;28;20048;-73
2022/11/24 06:08:28;;;;;;;18.27;3.00;;;;;;;;;;5025236;28;20072;-73
2022/11/24 06:11:15;;;;;;;20.58;3.17;;;;;;;;;;5030424;28;20152;-73
2022/11/24 06:13:43;;;;;;;21.00;3.17;;;;;;;;;;5028038;28;20057;-73
2022/11/24 06:16:11;;;;;;;24.20;3.45;;;;;;;;;;5028156;28;20642;-73
2022/11/24 06:18:38;;;;;;;23.08;2.88;;;;;;;;;;5026159;28;20053;-73
2022/11/24 06:21:06;;;;;;;20.65;2.90;;;;;;;;;;5029448;28;20045;-72
2022/11/24 06:23:34;;;;;;;20.88;3.10;;;;;;;;;;5021061;28;20507;-73
2022/11/24 06:26:01;;;;;;;20.40;2.95;;;;;;;;;;5025792;28;20504;-72
2022/11/24 06:28:29;;;;;;;20.30;3.03;;;;;;;;;;5028552;28;20072;-73
2022/11/24 06:31:00;;;;;;;18.60;3.05;;;;;;;;;;5034534;28;20095;-73
2022/11/24 06:33:27;;;;;;;28.45;3.53;;;;;;;;;;5030866;28;20144;-73
2022/11/24 06:36:00;;;;;;;30.88;3.40;;;;;;;;;;5027788;28;20398;-72
2022/11/24 06:38:27;;;;;;;21.60;3.17;;;;;;;;;;5032134;28;20048;-72
2022/11/24 06:41:00;;;;;;;23.77;3.47;;;;;;;;;;5028926;28;20053;-73
2022/11/24 06:43:27;;;;;;;34.25;3.95;;;;;;;;;;5026841;28;20053;-73
2022/11/24 06:45:54;;;;;;;20.92;3.50;;;;;;;;;;5028119;28;20049;-73
2022/11/24 06:48:22;;;;;;;22.88;3.03;;;;;;;;;;5029752;28;20053;-72
2022/11/24 06:50:49;;;;;;;21.90;3.08;;;;;;;;;;5026169;28;20059;-73
2022/11/24 06:53:16;;;;;;;25.92;3.92;;;;;;;;;;5027266;28;20041;-73
2022/11/24 06:55:44;;;;;;;32.35;4.38;;;;;;;;;;5027414;28;20052;-72
2022/11/24 06:58:12;;;;;;;18.20;3.10;;;;;;;;;;5021705;28;20045;-73
2022/11/24 07:00:40;;;;;;;24.92;3.60;;;;;;;;;;5025090;28;20053;-73
2022/11/24 07:03:07;;;;;;;31.42;3.78;;;;;;;;;;5016448;28;20412;-73
2022/11/24 07:05:34;;;;;;;24.30;3.10;;;;;;;;;;5020875;28;20044;-72
2022/11/24 07:08:01;;;;;;;23.98;3.50;;;;;;;;;;5019812;28;20041;-72
2022/11/24 07:10:29;;;;;;;19.92;3.28;;;;;;;;;;5026364;28;20504;-73
2022/11/24 07:12:56;;;;;;;18.90;3.17;;;;;;;;;;5026479;28;20057;-72
2022/11/24 07:15:25;;;;;;;30.73;3.22;;;;;;;;;;5026781;28;20060;-72
2022/11/24 07:17:52;;;;;;;24.23;2.97;;;;;;;;;;5032346;28;20748;-72
2022/11/24 07:20:19;;;;;;;33.25;4.32;;;;;;;;;;5026998;28;20060;-72
2022/11/24 07:22:47;;;;;;;15.75;2.60;;;;;;;;;;5025078;28;20050;-72
2022/11/24 07:25:16;;;;;;;14.57;2.53;;;;;;;;;;5027812;28;20131;-72
2022/11/24 07:27:43;;;;;;;19.52;2.60;;;;;;;;;;5027311;28;20137;-72
2022/11/24 07:30:11;;;;;;;19.65;2.60;;;;;;;;;;5023107;28;20053;-72
2022/11/24 07:32:39;;;;;;;16.75;2.47;;;;;;;;;;5021362;28;20049;-71
2022/11/24 07:35:07;;;;;;;20.30;2.55;;;;;;;;;;5017017;28;20052;-72
2022/11/24 07:37:34;;;;;;;23.27;2.55;;;;;;;;;;5020644;28;20081;-71
2022/11/24 07:40:01;;;;;;;16.15;2.28;;;;;;;;;;5036694;28;20673;-73
2022/11/24 07:42:28;;;;;;;25.38;2.83;;;;;;;;;;5022014;28;20055;-72
2022/11/24 07:44:56;;;;;;;18.48;3.00;;;;;;;;;;5041730;28;20127;-73
2022/11/24 07:47:23;;;;;;;18.65;2.50;;;;;;;;;;5019176;28;20057;-73
2022/11/24 07:49:51;;;;;;;16.08;1.95;;;;;;;;;;5020319;28;20071;-73
2022/11/24 07:52:19;;;;;;;19.95;2.47;;;;;;;;;;5012387;28;20068;-72
2022/11/24 07:54:46;;;;;;;14.85;2.95;;;;;;;;;;5017838;28;20081;-72
2022/11/24 07:57:13;;;;;;;25.42;2.50;;;;;;;;;;5016583;28;20071;-72
2022/11/24 07:59:40;;;;;;;13.63;2.03;;;;;;;;;;5019419;28;20113;-72
2022/11/24 08:02:08;;;;;;;13.32;2.30;;;;;;;;;;5024283;28;20580;-68
2022/11/24 08:04:37;;;;;;;16.38;1.95;;;;;;;;;;5041076;28;20607;-73
2022/11/24 08:07:06;;;;;;;19.73;2.65;;;;;;;;;;5023953;28;20049;-73
2022/11/24 08:09:33;;;;;;;13.27;2.08;;;;;;;;;;5026054;28;20503;-72
2022/11/24 08:12:00;;;;;;;10.55;1.70;;;;;;;;;;5026968;28;20049;-73
2022/11/24 08:14:27;;;;;;;14.00;2.17;;;;;;;;;;5023201;28;20072;-72
2022/11/24 08:16:54;;;;;;;18.33;2.00;;;;;;;;;;5027442;28;20049;-73
2022/11/24 08:19:22;;;;;;;10.63;2.40;;;;;;;;;;5025254;28;20060;-72
2022/11/24 08:21:49;;;;;;;13.25;2.13;;;;;;;;;;5024827;28;20049;-73
2022/11/24 08:24:18;;;;;;;15.50;1.98;;;;;;;;;;5027409;28;21255;-73
2022/11/24 08:26:45;;;;;;;19.92;2.65;;;;;;;;;;5027768;28;20053;-73
2022/11/24 08:29:13;;;;;;;16.08;2.17;;;;;;;;;;5024340;28;20064;-73
2022/11/24 08:31:40;;;;;;;15.30;3.15;;;;;;;;;;5023944;28;20056;-72
2022/11/24 08:34:07;;;;;;;16.38;4.00;;;;;;;;;;5024354;28;20769;-72
2022/11/24 08:36:35;;;;;;;16.25;2.67;;;;;;;;;;5022265;28;20057;-72
2022/11/24 08:39:02;;;;;;;17.98;2.97;;;;;;;;;;5024597;28;20403;-73
2022/11/24 08:41:32;;;;;;;13.38;2.47;;;;;;;;;;5026553;28;20055;-72
2022/11/24 08:43:59;;;;;;;13.02;3.30;;;;;;;;;;5020936;28;20132;-73
2022/11/24 08:46:26;;;;;;;12.00;2.78;;;;;;;;;;5020963;28;20072;-73
2022/11/24 08:48:54;;;;;;;14.30;2.88;;;;;;;;;;5026414;28;20045;-73
2022/11/24 08:51:24;;;;;;;13.90;2.97;;;;;;;;;;5023389;28;20056;-73
2022/11/24 08:53:54;;;;;;;14.90;3.00;;;;;;;;;;5023182;28;20048;-73
2022/11/24 08:56:21;;;;;;;20.10;2.95;;;;;;;;;;5024822;28;20056;-73
2022/11/24 08:58:50;;;;;;;12.80;3.05;;;;;;;;;;5021826;28;20041;-73
2022/11/24 09:01:18;;;;;;;15.13;2.92;;;;;;;;;;5025548;28;20087;-72
2022/11/24 09:03:47;;;;;;;14.77;2.88;;;;;;;;;;5023706;28;20522;-72
2022/11/24 09:06:14;;;;;;;14.73;2.83;;;;;;;;;;5023146;28;20120;-72
2022/11/24 09:08:42;;;;;;;18.10;2.97;;;;;;;;;;5028785;28;20041;-73
2022/11/24 09:11:09;;;;;;;15.10;2.45;;;;;;;;;;5030283;28;20055;-72
2022/11/24 09:13:37;;;;;;;12.90;2.03;;;;;;;;;;5027505;28;20053;-73
2022/11/24 09:16:07;;;;;;;17.58;3.45;;;;;;;;;;5025793;28;20051;-72
2022/11/24 09:18:35;;;;;;;12.88;2.00;;;;;;;;;;5043384;28;20415;-72
2022/11/24 09:21:09;;;;;;;11.10;2.13;;;;;;;;;;5044758;28;20064;-72
2022/11/24 09:23:36;;;;;;;13.80;2.05;;;;;;;;;;5024738;28;20045;-72
2022/11/24 09:26:04;;;;;;;11.57;1.48;;;;;;;;;;5024877;28;20049;-73
2022/11/24 09:28:32;;;;;;;12.55;1.50;;;;;;;;;;5028549;28;20061;-73
2022/11/24 09:31:01;;;;;;;14.02;1.73;;;;;;;;;;5023186;28;20053;-72
2022/11/24 09:33:30;;;;;;;9.43;1.55;;;;;;;;;;5028002;28;20055;-73
2022/11/24 09:35:57;;;;;;;11.45;1.20;;;;;;;;;;5025792;28;20124;-73
2022/11/24 09:38:25;;;;;;;11.07;1.95;;;;;;;;;;5027601;28;20048;-72
2022/11/24 09:40:53;;;;;;;7.72;1.20;;;;;;;;;;5028422;28;20080;-72
2022/11/24 09:43:25;;;;;;;14.25;1.60;;;;;;;;;;5028214;28;20053;-72
2022/11/24 09:45:56;;;;;;;11.57;1.55;;;;;;;;;;5023651;28;20143;-72
2022/11/24 09:48:26;;;;;;;10.45;1.70;;;;;;;;;;5027619;28;20057;-72
2022/11/24 09:50:58;;;;;;;13.38;1.70;;;;;;;;;;5030964;28;20049;-72
2022/11/24 09:53:30;;;;;;;8.90;1.73;;;;;;;;;;5042756;28;20049;-72
2022/11/24 09:55:59;;;;;;;17.63;3.13;;;;;;;;;;5028135;28;20052;-72
2022/11/24 09:58:36;;;;;;;10.13;2.22;;;;;;;;;;5025422;28;20045;-72
2022/11/24 10:01:05;;;;;;;12.20;1.83;;;;;;;;;;5024844;28;20608;-72
2022/11/24 10:03:35;;;;;;;11.05;1.55;;;;;;;;;;5028425;28;20049;-72
2022/11/24 10:06:06;;;;;;;12.05;1.70;;;;;;;;;;5026644;28;20049;-72
2022/11/24 10:08:43;;;;;;;14.85;1.60;;;;;;;;;;5027246;28;20049;-72
2022/11/24 10:11:13;;;;;;;7.53;1.20;;;;;;;;;;5027193;28;20404;-73
2022/11/24 10:13:52;;;;;;;12.95;2.13;;;;;;;;;;5025921;28;20041;-73
2022/11/24 10:16:25;;;;;;;14.15;2.03;;;;;;;;;;5026334;28;20057;-73
2022/11/24 10:18:57;;;;;;;7.07;1.25;;;;;;;;;;5022802;28;20145;-72
2022/11/24 10:21:33;;;;;;;10.95;1.88;;;;;;;;;;5026637;28;20049;-72
2022/11/24 10:24:08;;;;;;;10.45;2.00;;;;;;;;;;5025532;28;20059;-72
2022/11/24 10:26:36;;;;;;;17.83;2.33;;;;;;;;;;5026089;28;20053;-73
2022/11/24 10:29:11;;;;;;;9.93;1.83;;;;;;;;;;5026858;28;20071;-73
2022/11/24 10:31:41;;;;;;;13.40;2.17;;;;;;;;;;5026565;28;20053;-72
2022/11/24 10:34:14;;;;;;;12.20;1.80;;;;;;;;;;5027553;28;20804;-73
2022/11/24 10:36:44;;;;;;;16.48;4.38;;;;;;;;;;5026084;28;20143;-72
2022/11/24 10:39:15;;;;;;;11.82;2.05;;;;;;;;;;5026403;28;20507;-73
2022/11/24 10:41:47;;;;;;;11.55;2.15;;;;;;;;;;5022678;28;20076;-73
2022/11/24 10:44:15;;;;;;;10.90;2.30;;;;;;;;;;5028042;28;20053;-72
2022/11/24 10:46:42;;;;;;;9.38;2.50;;;;;;;;;;5041873;28;20041;-72
2022/11/24 10:49:15;;;;;;;10.75;2.22;;;;;;;;;;5024631;28;20045;-72
2022/11/24 10:51:50;;;;;;;11.15;2.70;;;;;;;;;;5027671;28;20052;-72
2022/11/24 10:54:18;;;;;;;13.02;3.38;;;;;;;;;;5024063;28;20547;-72
2022/11/24 10:56:46;;;;;;;14.55;3.00;;;;;;;;;;5027622;28;20048;-72
2022/11/24 10:59:34;;;;;;;14.68;3.13;;;;;;;;;;5018631;28;20132;-72
2022/11/24 11:02:01;;;;;;;10.48;3.25;;;;;;;;;;5020275;28;20135;-72
2022/11/24 11:04:29;;;;;;;12.70;3.78;;;;;;;;;;5034945;28;20794;-72
2022/11/24 11:07:11;;;;;;;11.98;4.55;;;;;;;;;;5015329;28;20131;-72
2022/11/24 11:09:40;;;;;;;16.17;3.63;;;;;;;;;;5014796;28;20411;-72
2022/11/24 11:12:11;;;;;;;13.70;3.63;;;;;;;;;;5036258;28;20041;-72
2022/11/24 11:14:39;;;;;;;10.38;3.40;;;;;;;;;;5017595;28;20052;-72
2022/11/24 11:17:21;;;;;;;13.82;3.42;;;;;;;;;;5017566;28;20059;-72
2022/11/24 11:19:48;;;;;;;15.15;3.63;;;;;;;;;;5015986;28;20045;-72
2022/11/24 11:22:20;;;;;;;15.98;3.45;;;;;;;;;;5020714;28;20084;-72
2022/11/24 11:25:02;;;;;;;16.75;3.80;;;;;;;;;;5017237;28;20059;-72
2022/11/24 11:27:29;;;;;;;15.63;4.10;;;;;;;;;;5020929;28;20119;-72
2022/11/24 11:30:12;;;;;;;11.13;3.30;;;;;;;;;;5017271;28;20052;-72
2022/11/24 11:32:51;;;;;;;13.70;4.07;;;;;;;;;;5020199;28;21291;-72
2022/11/24 11:35:19;;;;;;;18.90;4.03;;;;;;;;;;5019571;28;20303;-73
2022/11/24 11:37:47;;;;;;;17.92;3.53;;;;;;;;;;5037144;28;20053;-72
2022/11/24 11:40:17;;;;;;;18.10;3.30;;;;;;;;;;5019130;28;20052;-72
2022/11/24 11:42:47;;;;;;;12.50;3.65;;;;;;;;;;5034878;28;20079;-72
2022/11/24 11:45:16;;;;;;;13.05;3.25;;;;;;;;;;5017072;28;20057;-72
2022/11/24 11:47:45;;;;;;;16.23;3.50;;;;;;;;;;5017939;28;20456;-73
2022/11/24 11:50:12;;;;;;;12.27;3.72;;;;;;;;;;5017508;28;20052;-71
2022/11/24 11:52:46;;;;;;;12.07;4.15;;;;;;;;;;5019056;28;20073;-72
2022/11/24 11:55:37;;;;;;;15.85;3.60;;;;;;;;;;5018914;28;20144;-72
2022/11/24 11:58:13;;;;;;;14.52;3.40;;;;;;;;;;5013142;28;20050;-72
2022/11/24 12:00:46;;;;;;;12.70;2.55;;;;;;;;;;5028597;28;20636;-72
2022/11/24 12:03:27;;;;;;;14.47;3.00;;;;;;;;;;5022033;28;20454;-72
2022/11/24 12:06:00;;;;;;;16.58;3.50;;;;;;;;;;5022796;28;20061;-72
2022/11/24 12:08:32;;;;;;;24.55;3.50;;;;;;;;;;5038137;28;20049;-72
2022/11/24 12:11:06;;;;;;;12.57;3.42;;;;;;;;;;5025003;28;20053;-72
2022/11/24 12:13:45;;;;;;;14.60;3.05;;;;;;;;;;5024028;28;20087;-71
2022/11/24 12:16:17;;;;;;;13.43;3.22;;;;;;;;;;5041820;28;20049;-71
2022/11/24 12:18:50;;;;;;;17.92;2.83;;;;;;;;;;5023973;28;20048;-72
2022/11/24 12:21:18;;;;;;;14.95;3.58;;;;;;;;;;5025825;28;20972;-71
2022/11/24 12:23:52;;;;;;;18.83;2.72;;;;;;;;;;5041135;28;20049;-71
2022/11/24 12:26:24;;;;;;;11.20;2.67;;;;;;;;;;5024364;28;20060;-71
2022/11/24 12:28:56;;;;;;;13.68;2.28;;;;;;;;;;5024350;28;20049;-71
2022/11/24 12:31:28;;;;;;;13.38;2.38;;;;;;;;;;5018468;28;20384;-72
2022/11/24 12:34:20;;;;;;;21.95;2.90;;;;;;;;;;5036529;28;20049;-71
2022/11/24 12:36:53;;;;;;;20.42;2.83;;;;;;;;;;5003113;28;20056;-71
2022/11/24 12:39:25;;;;;;;16.65;3.13;;;;;;;;;;5040652;28;20053;-72
2022/11/24 12:41:59;;;;;;;18.83;3.72;;;;;;;;;;5024649;28;20044;-72
2022/11/24 12:44:39;;;;;;;18.15;2.53;;;;;;;;;;5027873;28;20057;-72
2022/11/24 12:47:11;;;;;;;17.27;2.50;;;;;;;;;;5023774;28;20059;-72
2022/11/24 12:49:43;;;;;;;19.50;2.60;;;;;;;;;;5026175;28;20060;-72
2022/11/24 12:52:15;;;;;;;18.38;3.00;;;;;;;;;;5032003;28;20064;-71
2022/11/24 12:54:42;;;;;;;19.52;2.90;;;;;;;;;;5045307;28;20889;-72
2022/11/24 12:57:16;;;;;;;17.00;2.80;;;;;;;;;;5025530;28;20570;-72
2022/11/24 12:59:46;;;;;;;22.35;2.45;;;;;;;;;;5025177;28;20041;-72
2022/11/24 13:02:21;;;;;;;18.90;2.20;;;;;;;;;;5031292;28;20052;-72
2022/11/24 13:04:51;;;;;;;16.40;2.42;;;;;;;;;;5024808;28;20044;-73
2022/11/24 13:07:21;;;;;;;13.55;2.13;;;;;;;;;;5028080;28;20053;-72
2022/11/24 13:10:07;;;;;;;12.35;2.80;;;;;;;;;;5043728;28;20045;-72
2022/11/24 13:12:52;;;;;;;14.60;2.33;;;;;;;;;;5027958;28;20053;-72
2022/11/24 13:15:20;;;;;;;17.73;2.85;;;;;;;;;;5024246;28;20052;-72
2022/11/24 13:17:47;;;;;;;16.63;2.58;;;;;;;;;;5025720;28;20060;-72
2022/11/24 13:20:16;;;;;;;18.80;2.67;;;;;;;;;;5031356;28;20073;-72
2022/11/24 13:22:47;;;;;;;21.48;3.40;;;;;;;;;;5049334;28;20048;-72
2022/11/24 13:25:16;;;;;;;21.98;3.72;;;;;;;;;;5030670;28;20824;-72
2022/11/24 13:27:47;;;;;;;25.70;3.53;;;;;;;;;;5031038;28;20068;-72
2022/11/24 13:30:33;;;;;;;16.23;2.88;;;;;;;;;;5028841;28;20049;-73
2022/11/24 13:33:01;;;;;;;23.88;3.90;;;;;;;;;;5006750;28;20066;-72
2022/11/24 13:35:29;;;;;;;18.95;3.15;;;;;;;;;;5002804;28;20127;-72
2022/11/24 13:37:56;;;;;;;24.10;2.58;;;;;;;;;;5003336;28;20132;-72
2022/11/24 13:40:43;;;;;;;14.70;3.03;;;;;;;;;;5003078;28;20049;-73
2022/11/24 13:43:25;;;;;;;19.02;2.83;;;;;;;;;;5000725;28;20045;-73
2022/11/24 13:45:53;;;;;;;23.02;2.97;;;;;;;;;;4997411;28;20057;-72
2022/11/24 13:48:50;;;;;;;17.10;2.70;;;;;;;;;;5001337;28;20054;-72
2022/11/24 13:51:23;;;;;;;12.70;2.65;;;;;;;;;;4899747;29;20062;-72
2022/11/24 13:53:51;;;;;;;19.70;2.57;;;;;;;;;;4977949;28;20112;-72
2022/11/24 13:56:23;;;;;;;20.08;2.63;;;;;;;;;;5003393;28;20054;-72
2022/11/24 13:58:52;;;;;;;25.88;2.92;;;;;;;;;;5001387;28;20053;-72
2022/11/24 14:01:20;;;;;;;14.70;2.28;;;;;;;;;;5017189;28;20062;-72
2022/11/24 14:03:53;;;;;;;18.83;3.38;;;;;;;;;;4998531;28;20060;-72
2022/11/24 14:06:26;;;;;;;24.65;2.45;;;;;;;;;;4996868;28;20056;-72
2022/11/24 14:08:53;;;;;;;16.60;3.30;;;;;;;;;;5000757;28;20054;-73
2022/11/24 14:11:21;;;;;;;27.73;3.00;;;;;;;;;;5004591;28;20354;-73
2022/11/24 14:13:48;;;;;;;23.25;3.33;;;;;;;;;;5006739;28;20042;-73
2022/11/24 14:16:18;;;;;;;16.33;2.83;;;;;;;;;;5005116;28;20049;-72
2022/11/24 14:18:46;;;;;;;18.45;2.45;;;;;;;;;;5002804;28;20076;-73
2022/11/24 14:21:22;;;;;;;23.55;3.13;;;;;;;;;;5004035;28;20069;-72
2022/11/24 14:23:50;;;;;;;22.13;3.30;;;;;;;;;;4994908;28;20159;-72
2022/11/24 14:26:20;;;;;;;18.13;2.53;;;;;;;;;;5001615;28;20049;-72
2022/11/24 14:28:48;;;;;;;21.95;2.92;;;;;;;;;;4993938;28;20047;-72
2022/11/24 14:31:21;;;;;;;27.58;3.20;;;;;;;;;;5006753;28;20724;-72
2022/11/24 14:33:48;;;;;;;;;;;;;;;;;;5022260;28;20045;-72
2022/11/24 14:36:16;;;;;;;21.17;2.67;;;;;;;;;;5022085;28;20351;-71
2022/11/24 14:38:43;;;;;;;25.10;3.13;;;;;;;;;;5016973;28;20056;-72
2022/11/24 14:41:15;;;;;;;21.90;2.67;;;;;;;;;;5025282;28;20480;-75
2022/11/24 14:43:42;;;;;;;20.45;2.35;;;;;;;;;;5021304;28;20545;-73
2022/11/24 14:46:11;;;;;;;20.98;2.60;;;;;;;;;;5025866;28;20053;-77